createdAt,value
2018-08-24T00:00:25.357Z,3.30
2018-08-24T00:02:54.442Z,3.70
2018-08-24T00:05:23.801Z,3.87
2018-08-24T00:07:52.853Z,3.57
2018-08-24T00:10:21.809Z,3.27
2018-08-24T00:12:50.809Z,3.30
2018-08-24T00:15:19.707Z,3.80
2018-08-24T00:17:49.151Z,3.50
2018-08-24T00:20:18.417Z,3.27
2018-08-24T00:22:47.473Z,3.40
2018-08-24T00:25:16.390Z,3.30
2018-08-24T00:27:45.572Z,4.00
2018-08-24T00:30:14.523Z,3.53
2018-08-24T00:32:43.490Z,3.37
2018-08-24T00:35:12.677Z,4.10
2018-08-24T00:37:41.681Z,3.87
2018-08-24T00:40:10.645Z,3.93
2018-08-24T00:42:39.705Z,3.80
2018-08-24T00:45:08.615Z,3.60
2018-08-24T00:47:37.533Z,3.90
2018-08-24T00:50:06.617Z,3.70
2018-08-24T00:52:35.500Z,3.90
2018-08-24T00:55:04.510Z,3.23
2018-08-24T00:57:33.814Z,3.70
2018-08-24T01:00:02.861Z,3.77
2018-08-24T01:02:31.718Z,3.63
2018-08-24T01:05:00.733Z,3.53
2018-08-24T01:07:29.822Z,3.50
2018-08-24T01:10:03.291Z,3.90
2018-08-24T01:12:32.337Z,3.90
2018-08-24T01:15:05.421Z,3.40
2018-08-24T01:17:39.486Z,3.33
2018-08-24T01:20:08.836Z,3.70
2018-08-24T01:22:37.737Z,3.70
2018-08-24T01:25:07.264Z,4.13
2018-08-24T01:27:37.329Z,3.70
2018-08-24T01:30:06.415Z,3.53
2018-08-24T01:32:35.370Z,3.80
2018-08-24T01:35:04.325Z,3.97
2018-08-24T01:37:33.292Z,3.90
2018-08-24T01:40:02.208Z,4.17
2018-08-24T01:42:31.482Z,3.80
2018-08-24T01:45:00.374Z,4.70
2018-08-24T01:47:29.235Z,3.73
2018-08-24T01:49:58.204Z,4.33
2018-08-24T01:52:27.194Z,3.90
2018-08-24T01:54:56.149Z,4.37
2018-08-24T01:57:25.500Z,4.27
2018-08-24T01:59:54.367Z,4.10
2018-08-24T02:02:23.327Z,4.83
2018-08-24T02:04:53.614Z,3.80
2018-08-24T02:07:22.539Z,4.20
2018-08-24T02:09:51.462Z,3.90
2018-08-24T02:12:25.613Z,4.80
2018-08-24T02:14:54.632Z,4.17
2018-08-24T02:17:28.924Z,3.87
2018-08-24T02:20:02.929Z,4.20
2018-08-24T02:22:32.659Z,4.00
2018-08-24T02:25:01.611Z,4.40
2018-08-24T02:27:30.517Z,3.83
2018-08-24T02:29:59.730Z,4.57
2018-08-24T02:32:28.643Z,4.53
2018-08-24T02:35:00.716Z,4.27
2018-08-24T02:37:30.662Z,4.30
2018-08-24T02:39:59.570Z,3.93
2018-08-24T02:42:28.835Z,4.13
2018-08-24T02:44:57.812Z,4.30
2018-08-24T02:47:26.720Z,4.10
2018-08-24T02:49:55.871Z,4.50
2018-08-24T02:52:24.740Z,4.70
2018-08-24T02:54:53.693Z,4.10
2018-08-24T02:57:23.023Z,4.10
2018-08-24T02:59:51.940Z,3.83
2018-08-24T03:02:20.995Z,4.20
2018-08-24T03:04:50.325Z,3.80
2018-08-24T03:07:19.237Z,4.30
2018-08-24T03:09:48.141Z,3.73
2018-08-24T03:12:17.681Z,4.13
2018-08-24T03:14:46.677Z,4.43
2018-08-24T03:17:20.878Z,4.57
2018-08-24T03:19:49.836Z,4.37
2018-08-24T03:22:18.738Z,4.37
2018-08-24T03:24:48.233Z,4.13
2018-08-24T03:27:17.167Z,4.13
2018-08-24T03:29:46.053Z,4.33
2018-08-24T03:32:15.298Z,4.23
2018-08-24T03:34:44.184Z,4.30
2018-08-24T03:37:13.112Z,3.80
2018-08-24T03:39:42.059Z,3.70
2018-08-24T03:42:11.715Z,3.93
2018-08-24T03:44:40.672Z,4.13
2018-08-24T03:47:09.621Z,4.20
2018-08-24T03:49:38.546Z,4.13
2018-08-24T03:52:07.466Z,4.17
2018-08-24T03:54:36.702Z,4.43
2018-08-24T03:57:05.676Z,4.50
2018-08-24T03:59:34.590Z,4.50
2018-08-24T04:02:03.942Z,4.17
2018-08-24T04:04:32.901Z,4.43
2018-08-24T04:07:01.843Z,4.67
2018-08-24T04:09:30.792Z,4.10
2018-08-24T04:11:59.647Z,4.40
2018-08-24T04:14:28.640Z,4.20
2018-08-24T04:17:02.664Z,4.40
2018-08-24T04:19:31.653Z,4.40
2018-08-24T04:22:00.927Z,4.20
2018-08-24T04:24:29.794Z,4.30
2018-08-24T04:26:58.737Z,4.13
2018-08-24T04:29:27.660Z,4.07
2018-08-24T04:31:56.638Z,4.07
2018-08-24T04:34:25.625Z,4.27
2018-08-24T04:36:54.547Z,3.87
2018-08-24T04:39:23.494Z,3.90
2018-08-24T04:41:52.394Z,4.00
2018-08-24T04:44:21.306Z,3.83
2018-08-24T04:46:50.569Z,3.90
2018-08-24T04:49:19.409Z,3.93
2018-08-24T04:51:48.271Z,3.87
2018-08-24T04:54:17.242Z,3.93
2018-08-24T04:56:46.218Z,4.00
2018-08-24T04:59:15.122Z,3.90
2018-08-24T05:01:44.448Z,3.73
2018-08-24T05:04:13.377Z,4.40
2018-08-24T05:06:42.212Z,3.97
2018-08-24T05:09:11.592Z,3.80
2018-08-24T05:11:41.060Z,4.03
2018-08-24T05:14:10.702Z,4.90
2018-08-24T05:16:39.962Z,5.07
2018-08-24T05:19:08.817Z,4.70
2018-08-24T05:21:37.697Z,5.73
2018-08-24T05:24:06.671Z,4.37
2018-08-24T05:26:35.652Z,5.27
2018-08-24T05:29:04.626Z,4.93
2018-08-24T05:31:33.973Z,4.73
2018-08-24T05:34:02.937Z,4.70
2018-08-24T05:36:31.811Z,4.60
2018-08-24T05:39:00.848Z,4.50
2018-08-24T05:41:30.045Z,5.17
2018-08-24T05:43:59.305Z,4.70
2018-08-24T05:46:28.531Z,4.90
2018-08-24T05:48:57.514Z,4.63
2018-08-24T05:51:26.263Z,4.50
2018-08-24T05:53:55.416Z,5.30
2018-08-24T05:56:24.178Z,5.07
2018-08-24T05:58:52.927Z,5.07
2018-08-24T06:01:21.777Z,5.73
2018-08-24T06:03:50.545Z,5.13
2018-08-24T06:06:19.302Z,5.17
2018-08-24T06:08:52.448Z,5.73
2018-08-24T06:11:21.223Z,5.33
2018-08-24T06:13:49.983Z,5.53
2018-08-24T06:16:18.764Z,4.80
2018-08-24T06:18:47.584Z,4.60
2018-08-24T06:21:16.364Z,4.40
2018-08-24T06:23:45.465Z,4.50
2018-08-24T06:26:14.884Z,7.80
2018-08-24T06:28:43.649Z,5.17
2018-08-24T06:31:12.457Z,4.53
2018-08-24T06:33:41.235Z,4.53
2018-08-24T06:36:10.031Z,4.37
2018-08-24T06:38:39.133Z,4.17
2018-08-24T06:41:07.936Z,4.47
2018-08-24T06:43:36.716Z,4.80
2018-08-24T06:46:05.566Z,4.80
2018-08-24T06:48:34.386Z,5.10
2018-08-24T06:51:03.155Z,5.60
2018-08-24T06:53:32.321Z,4.50
2018-08-24T06:56:01.076Z,4.90
2018-08-24T06:58:29.831Z,4.80
2018-08-24T07:00:58.607Z,4.60
2018-08-24T07:03:27.387Z,4.60
2018-08-24T07:05:56.301Z,4.33
2018-08-24T07:08:25.383Z,4.73
2018-08-24T07:10:54.121Z,4.87
2018-08-24T07:13:22.968Z,4.33
2018-08-24T07:15:51.734Z,4.73
2018-08-24T07:18:20.511Z,5.10
2018-08-24T07:20:49.273Z,4.80
2018-08-24T07:23:18.106Z,5.00
2018-08-24T07:25:46.886Z,5.20
2018-08-24T07:28:15.674Z,4.87
2018-08-24T07:30:44.408Z,4.87
2018-08-24T07:33:13.172Z,4.20
2018-08-24T07:35:41.906Z,4.67
2018-08-24T07:38:10.689Z,4.37
2018-08-24T07:40:39.466Z,4.70
2018-08-24T07:43:08.262Z,4.63
2018-08-24T07:45:37.521Z,4.53
2018-08-24T07:48:06.295Z,4.73
2018-08-24T07:50:35.090Z,4.67
2018-08-24T07:53:03.944Z,4.43
2018-08-24T07:55:32.699Z,6.33
2018-08-24T07:58:01.485Z,5.13
2018-08-24T08:00:30.602Z,4.73
2018-08-24T08:02:59.441Z,4.30
2018-08-24T08:05:28.254Z,4.97
2018-08-24T08:07:57.361Z,5.10
2018-08-24T08:10:30.184Z,4.80
2018-08-24T08:12:59.146Z,4.33
2018-08-24T08:15:27.924Z,5.00
2018-08-24T08:17:56.737Z,4.70
2018-08-24T08:20:25.602Z,4.30
2018-08-24T08:22:54.399Z,4.60
2018-08-24T08:25:23.268Z,4.80
2018-08-24T08:27:52.435Z,4.30
2018-08-24T08:30:21.294Z,5.17
2018-08-24T08:32:50.097Z,4.93
2018-08-24T08:35:19.272Z,4.50
2018-08-24T08:37:48.040Z,5.10
2018-08-24T08:40:16.780Z,4.33
2018-08-24T08:42:45.584Z,4.03
2018-08-24T08:45:14.433Z,4.07
2018-08-24T08:47:43.198Z,3.97
2018-08-24T08:50:12.355Z,3.93
2018-08-24T08:52:41.122Z,4.17
2018-08-24T08:55:10.190Z,4.83
2018-08-24T08:57:39.349Z,4.13
2018-08-24T09:00:08.253Z,4.20
2018-08-24T09:02:37.113Z,3.87
2018-08-24T09:05:06.479Z,4.27
2018-08-24T09:07:35.284Z,4.10
2018-08-24T09:10:04.430Z,4.07
2018-08-24T09:12:33.545Z,4.80
2018-08-24T09:15:02.359Z,4.40
2018-08-24T09:17:36.672Z,4.20
2018-08-24T09:20:10.707Z,4.60
2018-08-24T09:22:45.302Z,4.37
2018-08-24T09:25:19.372Z,4.10
2018-08-24T09:27:52.651Z,4.33
2018-08-24T09:30:22.716Z,4.40
2018-08-24T09:32:51.547Z,4.10
2018-08-24T09:35:21.042Z,4.13
2018-08-24T09:37:49.948Z,4.20
2018-08-24T09:40:19.137Z,4.47
2018-08-24T09:42:48.000Z,3.57
2018-08-24T09:45:16.810Z,6.67
2018-08-24T09:48:48.575Z,6.20
2018-08-24T09:51:22.481Z,4.33
2018-08-24T09:53:57.289Z,4.03
2018-08-24T09:56:27.329Z,4.37
2018-08-24T09:58:56.261Z,4.13
2018-08-24T10:01:30.419Z,5.17
2018-08-24T10:04:04.404Z,5.90
2018-08-24T10:06:38.424Z,6.17
2018-08-24T10:09:10.925Z,4.97
2018-08-24T10:11:40.096Z,4.70
2018-08-24T10:14:09.307Z,4.30
2018-08-24T10:16:38.498Z,4.00
2018-08-24T10:19:10.623Z,3.97
2018-08-24T10:21:39.571Z,3.90
2018-08-24T10:24:13.624Z,4.60
2018-08-24T10:26:42.457Z,4.20
2018-08-24T10:29:11.310Z,4.40
2018-08-24T10:31:40.489Z,4.30
2018-08-24T10:34:09.309Z,4.10
2018-08-24T10:36:38.891Z,4.00
2018-08-24T10:39:09.821Z,4.20
2018-08-24T10:41:38.578Z,3.90
2018-08-24T10:44:07.568Z,4.10
2018-08-24T10:46:36.712Z,3.40
2018-08-24T10:49:05.631Z,4.30
2018-08-24T10:51:34.435Z,4.50
2018-08-24T10:54:03.353Z,3.80
2018-08-24T10:56:32.170Z,3.80
2018-08-24T10:59:00.961Z,3.67
2018-08-24T11:01:30.082Z,3.93
2018-08-24T11:03:58.895Z,3.77
2018-08-24T11:06:27.781Z,3.80
2018-08-24T11:08:56.971Z,4.43
2018-08-24T11:11:26.089Z,4.10
2018-08-24T11:13:54.861Z,4.10
2018-08-24T11:16:23.666Z,4.20
2018-08-24T11:18:52.489Z,4.03
2018-08-24T11:21:21.303Z,4.20
2018-08-24T11:23:50.470Z,4.80
2018-08-24T11:26:19.280Z,4.40
2018-08-24T11:28:48.174Z,3.90
2018-08-24T11:31:17.015Z,12.70
2018-08-24T11:33:45.793Z,4.07
2018-08-24T11:36:15.441Z,4.17
2018-08-24T11:38:44.312Z,4.47
2018-08-24T11:41:13.150Z,4.20
2018-08-24T11:43:42.055Z,3.90
2018-08-24T11:46:10.928Z,3.83
2018-08-24T11:48:39.774Z,4.13
2018-08-24T11:51:08.610Z,4.00
2018-08-24T11:53:37.480Z,4.00
2018-08-24T11:56:06.918Z,3.80
2018-08-24T11:58:35.752Z,4.30
2018-08-24T12:01:04.662Z,3.70
2018-08-24T12:03:33.505Z,4.20
2018-08-24T12:06:02.326Z,4.00
2018-08-24T12:08:31.411Z,4.17
2018-08-24T12:11:00.250Z,4.03
2018-08-24T12:13:29.169Z,4.07
2018-08-24T12:15:57.994Z,3.80
2018-08-24T12:18:26.944Z,3.50
2018-08-24T12:20:55.695Z,3.80
2018-08-24T12:23:24.834Z,3.73
2018-08-24T12:25:53.721Z,3.80
2018-08-24T12:28:22.553Z,4.10
2018-08-24T12:30:51.484Z,3.43
2018-08-24T12:33:20.270Z,3.30
2018-08-24T12:35:49.138Z,3.97
2018-08-24T12:38:18.324Z,3.50
2018-08-24T12:40:47.187Z,3.50
2018-08-24T12:43:17.065Z,3.60
2018-08-24T12:45:45.958Z,3.90
2018-08-24T12:48:14.802Z,3.60
2018-08-24T12:50:43.686Z,4.00
2018-08-24T12:53:12.557Z,3.93
2018-08-24T12:55:41.416Z,3.47
2018-08-24T12:58:10.278Z,3.47
2018-08-24T13:00:39.223Z,3.23
2018-08-24T13:03:08.036Z,4.03
2018-08-24T13:05:36.873Z,3.50
2018-08-24T13:08:05.849Z,3.83
2018-08-24T13:10:34.668Z,4.07
2018-08-24T13:13:03.445Z,3.40
2018-08-24T13:15:32.319Z,3.67
2018-08-24T13:18:01.135Z,4.03
2018-08-24T13:20:30.076Z,3.90
2018-08-24T13:22:59.003Z,4.23
2018-08-24T13:25:27.805Z,3.80
2018-08-24T13:27:56.593Z,4.67
2018-08-24T13:30:25.565Z,4.07
2018-08-24T13:32:54.568Z,3.90
2018-08-24T13:35:23.447Z,3.63
2018-08-24T13:37:52.464Z,3.23
2018-08-24T13:40:21.370Z,3.77
2018-08-24T13:42:50.325Z,4.03
2018-08-24T13:45:19.492Z,4.00
2018-08-24T13:47:48.527Z,4.00
2018-08-24T13:50:17.566Z,4.43
2018-08-24T13:52:46.619Z,3.70
2018-08-24T13:55:15.764Z,3.70
2018-08-24T13:57:44.915Z,3.90
2018-08-24T14:00:14.202Z,3.80
2018-08-24T14:02:43.266Z,3.77
2018-08-24T14:05:12.371Z,4.43
2018-08-24T14:07:41.562Z,3.73
2018-08-24T14:10:10.561Z,3.87
2018-08-24T14:12:39.607Z,4.10
2018-08-24T14:15:08.629Z,3.93
2018-08-24T14:17:37.682Z,3.95
2018-08-24T14:20:07.028Z,3.47
2018-08-24T14:22:36.317Z,4.17
2018-08-24T14:25:05.600Z,3.90
2018-08-24T14:27:34.597Z,3.77
2018-08-24T14:30:03.901Z,3.50
2018-08-24T14:32:32.819Z,3.93
2018-08-24T14:35:01.742Z,4.27
2018-08-24T14:37:31.118Z,3.90
2018-08-24T14:40:00.042Z,4.50
2018-08-24T14:42:29.173Z,4.00
2018-08-24T14:44:58.567Z,4.40
2018-08-24T14:47:27.572Z,3.83
2018-08-24T14:49:56.581Z,3.90
2018-08-24T14:52:26.133Z,4.07
2018-08-24T14:54:55.145Z,4.23
2018-08-24T14:57:24.280Z,4.10
2018-08-24T14:59:53.770Z,4.27
2018-08-24T15:02:22.941Z,4.00
2018-08-24T15:04:52.100Z,4.07
2018-08-24T15:07:21.476Z,4.20
2018-08-24T15:09:50.655Z,4.13
2018-08-24T15:12:19.722Z,4.20
2018-08-24T15:14:48.755Z,4.43
2018-08-24T15:17:17.741Z,4.10
2018-08-24T15:19:46.963Z,4.57
2018-08-24T15:22:15.988Z,4.53
2018-08-24T15:24:45.121Z,4.50
2018-08-24T15:27:14.343Z,4.63
2018-08-24T15:29:43.852Z,4.10
2018-08-24T15:32:12.858Z,3.90
2018-08-24T15:34:42.141Z,4.13
2018-08-24T15:37:11.284Z,4.57
2018-08-24T15:39:40.379Z,4.13
2018-08-24T15:42:09.598Z,3.77
2018-08-24T15:44:38.721Z,4.17
2018-08-24T15:47:07.757Z,4.07
2018-08-24T15:49:36.900Z,4.00
2018-08-24T15:52:06.520Z,4.17
2018-08-24T15:54:35.772Z,4.03
2018-08-24T15:57:05.200Z,4.60
2018-08-24T15:59:34.895Z,4.47
2018-08-24T16:02:04.610Z,3.90
2018-08-24T16:04:34.176Z,3.63
2018-08-24T16:07:04.774Z,4.03
2018-08-24T16:09:33.768Z,3.97
2018-08-24T16:12:03.906Z,4.00
2018-08-24T16:14:34.274Z,4.50
2018-08-24T16:17:03.618Z,3.97
2018-08-24T16:19:33.030Z,4.07
2018-08-24T16:22:02.647Z,4.10
2018-08-24T16:24:32.056Z,3.83
2018-08-24T16:27:01.702Z,4.33
2018-08-24T16:29:31.633Z,4.77
2018-08-24T16:32:01.022Z,4.37
2018-08-24T16:34:30.750Z,4.50
2018-08-24T16:37:00.296Z,4.17
2018-08-24T16:39:29.992Z,3.97
2018-08-24T16:41:59.026Z,4.57
2018-08-24T16:44:28.127Z,3.90
2018-08-24T16:46:57.168Z,4.53
2018-08-24T16:49:26.202Z,4.43
2018-08-24T16:51:55.272Z,3.90
2018-08-24T16:54:24.443Z,4.67
2018-08-24T16:56:53.318Z,4.00
2018-08-24T16:59:22.573Z,4.27
2018-08-24T17:01:51.512Z,4.77
2018-08-24T17:04:20.449Z,4.07
2018-08-24T17:06:49.771Z,4.50
2018-08-24T17:09:18.720Z,3.70
2018-08-24T17:11:47.725Z,4.53
2018-08-24T17:14:17.060Z,4.60
2018-08-24T17:16:45.997Z,4.20
2018-08-24T17:19:14.950Z,4.10
2018-08-24T17:21:43.961Z,4.60
2018-08-24T17:24:12.933Z,4.50
2018-08-24T17:26:42.024Z,4.70
2018-08-24T17:29:11.129Z,5.30
2018-08-24T17:31:40.400Z,5.03
2018-08-24T17:34:09.385Z,4.90
2018-08-24T17:36:38.962Z,5.43
2018-08-24T17:39:10.568Z,5.33
2018-08-24T17:41:39.549Z,4.90
2018-08-24T17:44:08.921Z,4.10
2018-08-24T17:46:38.306Z,4.27
2018-08-24T17:49:07.973Z,4.10
2018-08-24T17:51:36.900Z,3.97
2018-08-24T17:54:07.084Z,4.00
2018-08-24T17:56:36.337Z,4.27
2018-08-24T17:59:05.579Z,4.37
2018-08-24T18:01:34.678Z,4.10
2018-08-24T18:04:04.140Z,3.70
2018-08-24T18:06:33.224Z,4.87
2018-08-24T18:09:02.443Z,4.57
2018-08-24T18:11:31.677Z,4.70
2018-08-24T18:14:00.671Z,4.30
2018-08-24T18:16:29.735Z,4.30
2018-08-24T18:18:58.947Z,4.93
2018-08-24T18:21:27.962Z,5.53
2018-08-24T18:23:56.906Z,5.60
2018-08-24T18:26:25.883Z,5.10
2018-08-24T18:28:54.878Z,4.30
2018-08-24T18:31:23.885Z,4.50
2018-08-24T18:33:53.379Z,4.47
2018-08-24T18:36:22.287Z,4.60
2018-08-24T18:38:51.257Z,4.60
2018-08-24T18:41:20.741Z,4.07
2018-08-24T18:43:49.763Z,4.73
2018-08-24T18:46:18.724Z,4.63
2018-08-24T18:48:47.915Z,4.27
2018-08-24T18:51:17.010Z,4.27
2018-08-24T18:53:46.054Z,4.47
2018-08-24T18:56:15.361Z,4.80
2018-08-24T18:58:44.361Z,4.40
2018-08-24T19:01:13.396Z,4.20
2018-08-24T19:03:42.402Z,5.10
2018-08-24T19:06:11.286Z,5.57
2018-08-24T19:08:40.229Z,5.33
2018-08-24T19:11:14.347Z,5.13
2018-08-24T19:13:43.276Z,5.10
2018-08-24T19:16:12.190Z,4.83
2018-08-24T19:19:49.012Z,5.57
2018-08-24T19:22:18.036Z,5.40
2018-08-24T19:24:46.984Z,5.43
2018-08-24T19:27:16.302Z,5.57
2018-08-24T19:30:53.107Z,5.10
2018-08-24T19:33:22.057Z,5.63
2018-08-24T19:35:50.948Z,5.90
2018-08-24T19:38:19.907Z,5.10
2018-08-24T19:40:54.471Z,5.90
2018-08-24T19:43:23.358Z,5.37
2018-08-24T19:45:52.293Z,5.53
2018-08-24T19:48:26.598Z,5.37
2018-08-24T19:50:55.571Z,6.00
2018-08-24T19:53:25.373Z,6.23
2018-08-24T19:55:54.340Z,6.60
2018-08-24T19:58:28.440Z,5.70
2018-08-24T20:00:57.791Z,5.83
2018-08-24T20:03:26.671Z,5.97
2018-08-24T20:06:00.838Z,5.63
2018-08-24T20:08:34.888Z,6.33
2018-08-24T20:11:04.093Z,6.30
2018-08-24T20:13:33.038Z,5.87
2018-08-24T20:16:07.100Z,6.20
2018-08-24T20:18:36.816Z,6.37
2018-08-24T20:21:05.968Z,6.23
2018-08-24T20:23:34.971Z,6.37
2018-08-24T20:26:04.009Z,6.43
2018-08-24T20:28:32.991Z,5.80
2018-08-24T20:31:02.228Z,6.30
2018-08-24T20:33:31.187Z,6.17
2018-08-24T20:36:00.207Z,6.60
2018-08-24T20:38:29.394Z,6.47
2018-08-24T20:40:58.357Z,6.63
2018-08-24T20:43:27.319Z,6.50
2018-08-24T20:45:56.255Z,7.37
2018-08-24T20:48:25.214Z,6.23
2018-08-24T20:50:54.189Z,6.27
2018-08-24T20:53:23.161Z,6.23
2018-08-24T20:55:52.168Z,6.23
2018-08-24T20:58:21.161Z,6.60
2018-08-24T21:00:50.599Z,6.03
2018-08-24T21:03:19.542Z,6.07
2018-08-24T21:05:48.624Z,5.97
2018-08-24T21:08:17.720Z,6.50
2018-08-24T21:10:46.935Z,6.30
2018-08-24T21:13:15.870Z,6.10
2018-08-24T21:15:45.314Z,8.00
2018-08-24T21:18:14.295Z,6.07
2018-08-24T21:20:43.263Z,6.17
2018-08-24T21:23:12.209Z,5.47
2018-08-24T21:25:41.162Z,5.57
2018-08-24T21:28:10.081Z,5.50
2018-08-24T21:30:39.034Z,6.13
2018-08-24T21:33:07.925Z,5.83
2018-08-24T21:35:36.948Z,6.33
2018-08-24T21:38:06.526Z,6.20
2018-08-24T21:40:35.536Z,5.60
2018-08-24T21:43:04.486Z,5.47
2018-08-24T21:45:33.437Z,5.97
2018-08-24T21:48:02.373Z,4.83
2018-08-24T21:50:31.290Z,4.93
2018-08-24T21:53:00.652Z,5.47
2018-08-24T21:55:29.551Z,5.33
2018-08-24T21:57:58.494Z,5.20
2018-08-24T22:00:27.553Z,4.83
2018-08-24T22:02:56.585Z,5.67
2018-08-24T22:05:25.581Z,5.17
2018-08-24T22:07:54.944Z,5.47
2018-08-24T22:10:23.804Z,5.27
2018-08-24T22:12:52.731Z,5.33
2018-08-24T22:15:22.031Z,5.63
2018-08-24T22:17:51.002Z,5.27
2018-08-24T22:20:20.057Z,5.37
2018-08-24T22:22:49.045Z,5.40
2018-08-24T22:27:45.261Z,5.03
2018-08-24T22:30:14.488Z,5.13
2018-08-24T22:32:43.305Z,5.30
2018-08-24T22:35:12.143Z,4.97
2018-08-24T22:37:41.323Z,5.10
2018-08-24T22:40:10.251Z,5.33
2018-08-24T22:42:42.267Z,5.00
2018-08-24T22:45:12.068Z,4.90
2018-08-24T22:47:40.925Z,5.07
2018-08-24T22:50:10.252Z,5.50
2018-08-24T22:52:39.669Z,5.00
2018-08-24T22:55:09.093Z,5.00
2018-08-24T22:57:37.942Z,5.30
2018-08-24T23:00:06.879Z,5.67
2018-08-24T23:02:35.741Z,5.30
2018-08-24T23:05:04.650Z,5.50
2018-08-24T23:07:33.468Z,5.43
2018-08-24T23:10:02.351Z,5.10
2018-08-24T23:12:31.174Z,5.57
2018-08-24T23:14:59.990Z,5.00
2018-08-24T23:17:29.166Z,4.70
2018-08-24T23:19:58.054Z,5.77
2018-08-24T23:22:26.875Z,5.37
2018-08-24T23:24:55.644Z,5.23
2018-08-24T23:27:24.720Z,5.30
2018-08-24T23:29:53.557Z,5.10
2018-08-24T23:32:22.400Z,5.90
2018-08-24T23:34:51.223Z,5.50
2018-08-24T23:37:20.040Z,5.70
2018-08-24T23:39:48.856Z,5.70
2018-08-24T23:42:17.659Z,5.47
2018-08-24T23:44:46.442Z,5.03
